Time;durP1;ratioP1;P1;durP2;ratioP2;P2;SDS_P1;SDS_P2;PMS_P1;PMS_P2;Temp;Humidity;BMP_temperature;BMP_pressure;BME280_temperature;BME280_humidity;BME280_pressure;Samples;Min_cycle;Max_cycle;Signal;HPM_P1;HPM_P2
2022/06/10 00:00:32;;;;;;;4.13;2.67;;;;;;;;;;5018987;28;20203;-86
2022/06/10 00:02:59;;;;;;;1.90;1.80;;;;;;;;;;5019055;28;20199;-86
2022/06/10 00:05:29;;;;;;;1.77;1.67;;;;;;;;;;5019583;28;20270;-86
2022/06/10 00:07:57;;;;;;;2.08;1.98;;;;;;;;;;5018411;28;20448;-86
2022/06/10 00:10:27;;;;;;;1.23;1.20;;;;;;;;;;5018928;28;20206;-86
2022/06/10 00:12:55;;;;;;;1.73;1.63;;;;;;;;;;5018444;28;20248;-86
2022/06/10 00:15:22;;;;;;;1.38;1.27;;;;;;;;;;5018852;28;20195;-85
2022/06/10 00:17:51;;;;;;;1.80;1.70;;;;;;;;;;5018326;28;20251;-85
2022/06/10 00:20:23;;;;;;;2.28;1.30;;;;;;;;;;5018770;28;20210;-86
2022/06/10 00:22:51;;;;;;;1.48;1.30;;;;;;;;;;5018309;28;20207;-86
2022/06/10 00:25:18;;;;;;;1.05;1.05;;;;;;;;;;5018919;28;20191;-86
2022/06/10 00:27:47;;;;;;;1.88;1.20;;;;;;;;;;5018147;28;20250;-85
2022/06/10 00:30:17;;;;;;;1.38;1.27;;;;;;;;;;5017476;28;20210;-85
2022/06/10 00:32:44;;;;;;;1.23;1.00;;;;;;;;;;5017844;28;20219;-85
2022/06/10 00:35:14;;;;;;;1.88;1.30;;;;;;;;;;5018788;28;20191;-86
2022/06/10 00:37:42;;;;;;;1.50;1.30;;;;;;;;;;5017975;28;20219;-86
2022/06/10 00:40:14;;;;;;;1.50;1.40;;;;;;;;;;5018261;28;20207;-86
2022/06/10 00:42:42;;;;;;;1.50;1.40;;;;;;;;;;5017423;28;20671;-87
2022/06/10 00:46:00;;;;;;;1.42;1.33;;;;;;;;;;5018142;28;20659;-87
2022/06/10 00:48:36;;;;;;;1.45;1.35;;;;;;;;;;5017648;28;20233;-86
2022/06/10 00:51:19;;;;;;;1.48;1.10;;;;;;;;;;5018401;28;20256;-87
2022/06/10 00:53:49;;;;;;;1.15;1.15;;;;;;;;;;5017869;28;20270;-87
2022/06/10 00:56:21;;;;;;;1.80;1.70;;;;;;;;;;5018893;28;20249;-87
2022/06/10 00:58:54;;;;;;;1.40;1.30;;;;;;;;;;5018688;28;20270;-87
2022/06/10 01:01:22;;;;;;;1.30;1.20;;;;;;;;;;5018130;28;20188;-87
2022/06/10 01:03:51;;;;;;;1.00;1.00;;;;;;;;;;5017984;28;20271;-87
2022/06/10 01:06:21;;;;;;;1.40;1.30;;;;;;;;;;5018823;28;20202;-87
2022/06/10 01:08:50;;;;;;;1.50;1.40;;;;;;;;;;5018165;28;20229;-86
2022/06/10 01:11:46;;;;;;;2.35;2.15;;;;;;;;;;5018055;28;20249;-86
2022/06/10 01:14:33;;;;;;;1.35;1.30;;;;;;;;;;5018628;28;20199;-86
2022/06/10 01:17:12;;;;;;;2.75;1.50;;;;;;;;;;5018599;28;20211;-86
2022/06/10 01:20:16;;;;;;;1.40;1.30;;;;;;;;;;5017654;28;20222;-87
2022/06/10 01:23:23;;;;;;;2.65;1.92;;;;;;;;;;5017599;28;20194;-85
2022/06/10 01:27:47;;;;;;;1.67;1.58;;;;;;;;;;5017632;28;20290;-86
2022/06/10 01:29:57;;;;;;;3.13;1.48;;;;;;;;;;5005351;28;20234;-86
2022/06/10 01:32:33;;;;;;;1.38;1.27;;;;;;;;;;5017572;28;20206;-86
2022/06/10 01:35:13;;;;;;;1.40;1.30;;;;;;;;;;5018334;28;20226;-86
2022/06/10 01:37:47;;;;;;;1.30;1.30;;;;;;;;;;5017771;28;20590;-86
2022/06/10 01:40:24;;;;;;;1.35;1.23;;;;;;;;;;5017374;28;20218;-86
2022/06/10 01:43:01;;;;;;;1.73;1.40;;;;;;;;;;5017371;28;20199;-85
2022/06/10 01:45:35;;;;;;;3.80;1.65;;;;;;;;;;5017507;28;20234;-86
2022/06/10 01:48:07;;;;;;;3.42;1.70;;;;;;;;;;5017327;28;20483;-86
2022/06/10 01:50:47;;;;;;;1.42;1.30;;;;;;;;;;5018282;28;20562;-86
2022/06/10 01:53:20;;;;;;;1.48;1.30;;;;;;;;;;5018647;28;20313;-85
2022/06/10 01:55:53;;;;;;;1.40;1.30;;;;;;;;;;5021927;28;20282;-86
2022/06/10 01:58:26;;;;;;;1.50;1.40;;;;;;;;;;5021916;28;20296;-86
2022/06/10 02:00:58;;;;;;;2.22;1.70;;;;;;;;;;5022049;28;20253;-86
2022/06/10 02:03:32;;;;;;;1.52;1.42;;;;;;;;;;5020991;28;20198;-86
2022/06/10 02:06:04;;;;;;;1.90;1.50;;;;;;;;;;5022036;28;20199;-85
2022/06/10 02:08:35;;;;;;;1.52;1.40;;;;;;;;;;5020904;28;20254;-86
2022/06/10 02:11:07;;;;;;;2.20;2.10;;;;;;;;;;5021663;28;20545;-86
2022/06/10 02:13:40;;;;;;;2.22;1.42;;;;;;;;;;5020989;28;20247;-86
2022/06/10 02:16:12;;;;;;;1.50;1.40;;;;;;;;;;5021832;28;20582;-86
2022/06/10 02:18:44;;;;;;;1.65;1.55;;;;;;;;;;5021784;28;20309;-86
2022/06/10 02:21:16;;;;;;;1.73;1.63;;;;;;;;;;5021868;28;20199;-86
2022/06/10 02:23:49;;;;;;;1.42;1.33;;;;;;;;;;5021770;28;20628;-86
2022/06/10 02:26:18;;;;;;;1.52;1.20;;;;;;;;;;5021943;28;20547;-86
2022/06/10 02:28:51;;;;;;;1.77;1.33;;;;;;;;;;4983706;28;20220;-86
2022/06/10 02:31:21;;;;;;;2.40;1.73;;;;;;;;;;4982076;28;20200;-86
2022/06/10 02:33:50;;;;;;;1.48;1.42;;;;;;;;;;4981831;28;20232;-86
2022/06/10 02:36:24;;;;;;;1.40;1.30;;;;;;;;;;4981805;28;20239;-86
2022/06/10 02:39:08;;;;;;;1.25;1.25;;;;;;;;;;4981509;28;20223;-86
2022/06/10 02:41:42;;;;;;;1.80;1.70;;;;;;;;;;4981267;28;20602;-86
2022/06/10 02:44:19;;;;;;;1.58;1.50;;;;;;;;;;4981380;28;20216;-86
2022/06/10 02:46:54;;;;;;;1.50;1.40;;;;;;;;;;4982120;28;20208;-85
2022/06/10 02:49:23;;;;;;;2.30;1.98;;;;;;;;;;4981814;28;20224;-85
2022/06/10 02:51:51;;;;;;;2.72;1.88;;;;;;;;;;4981005;28;20394;-85
2022/06/10 02:54:27;;;;;;;2.30;2.10;;;;;;;;;;4981865;28;20675;-85
2022/06/10 02:56:55;;;;;;;2.42;1.63;;;;;;;;;;4989533;28;20218;-85
2022/06/10 03:02:27;;;;;;;1.42;1.33;;;;;;;;;;5019836;28;20825;-86
2022/06/10 03:05:15;;;;;;;1.63;1.52;;;;;;;;;;5017938;28;20261;-84
2022/06/10 03:07:55;;;;;;;1.60;1.40;;;;;;;;;;5020915;28;20771;-84
2022/06/10 03:10:28;;;;;;;2.25;1.60;;;;;;;;;;5020713;28;20234;-85
2022/06/10 03:13:38;;;;;;;1.58;1.48;;;;;;;;;;5019487;28;20234;-85
2022/06/10 03:16:26;;;;;;;1.65;1.55;;;;;;;;;;5020503;28;20742;-85
2022/06/10 03:19:18;;;;;;;1.50;1.40;;;;;;;;;;5019660;28;20219;-85
2022/06/10 03:21:59;;;;;;;1.90;1.50;;;;;;;;;;5020230;28;20624;-84
2022/06/10 03:24:35;;;;;;;1.75;1.60;;;;;;;;;;5019988;28;20714;-85
2022/06/10 03:27:09;;;;;;;2.25;1.70;;;;;;;;;;5019347;28;20203;-85
2022/06/10 03:29:47;;;;;;;2.13;1.95;;;;;;;;;;5019539;28;20699;-85
2022/06/10 03:32:28;;;;;;;1.70;1.60;;;;;;;;;;5020355;28;20572;-85
2022/06/10 03:35:01;;;;;;;1.42;1.33;;;;;;;;;;5020006;28;20246;-85
2022/06/10 03:37:31;;;;;;;1.45;1.35;;;;;;;;;;5020944;28;20688;-85
2022/06/10 03:39:58;;;;;;;1.95;1.70;;;;;;;;;;5019888;28;20218;-85
2022/06/10 03:42:28;;;;;;;1.38;1.30;;;;;;;;;;5019633;28;20203;-85
2022/06/10 03:44:58;;;;;;;1.50;1.40;;;;;;;;;;5020859;28;20203;-86
2022/06/10 03:47:30;;;;;;;1.75;1.30;;;;;;;;;;5019129;28;20223;-87
2022/06/10 03:50:00;;;;;;;1.67;1.40;;;;;;;;;;5019970;28;20227;-86
2022/06/10 03:52:33;;;;;;;1.70;1.58;;;;;;;;;;5020287;28;20220;-85
2022/06/10 03:55:00;;;;;;;1.45;1.40;;;;;;;;;;5020229;28;20214;-85
2022/06/10 03:57:28;;;;;;;1.27;1.20;;;;;;;;;;5018799;28;20957;-86
2022/06/10 03:59:55;;;;;;;1.10;1.10;;;;;;;;;;5019151;28;20210;-86
2022/06/10 04:02:23;;;;;;;1.65;1.55;;;;;;;;;;5018804;28;20261;-86
2022/06/10 04:04:51;;;;;;;1.15;1.15;;;;;;;;;;5019031;28;20233;-86
2022/06/10 04:07:20;;;;;;;0.93;0.93;;;;;;;;;;5018614;28;20664;-86
2022/06/10 04:09:50;;;;;;;1.63;1.35;;;;;;;;;;5018780;28;20207;-86
2022/06/10 04:12:19;;;;;;;1.75;1.10;;;;;;;;;;5018493;28;20246;-86
2022/06/10 04:14:47;;;;;;;2.03;1.20;;;;;;;;;;5018454;28;20266;-85
2022/06/10 04:17:16;;;;;;;1.70;1.52;;;;;;;;;;5018500;28;20195;-83
2022/06/10 04:19:44;;;;;;;1.10;1.10;;;;;;;;;;5018707;28;20195;-84
2022/06/10 04:22:12;;;;;;;1.63;1.52;;;;;;;;;;5018133;28;20190;-84
2022/06/10 04:24:39;;;;;;;1.55;1.42;;;;;;;;;;5018936;28;20226;-84
2022/06/10 04:27:08;;;;;;;1.73;1.60;;;;;;;;;;5007500;28;20279;-85
2022/06/10 04:29:36;;;;;;;1.48;1.35;;;;;;;;;;4979766;28;20259;-85
2022/06/10 04:32:03;;;;;;;1.50;1.40;;;;;;;;;;4977869;28;20244;-85
2022/06/10 04:34:31;;;;;;;1.58;1.48;;;;;;;;;;4978140;28;20235;-85
2022/06/10 04:36:59;;;;;;;1.98;1.77;;;;;;;;;;4978602;28;20666;-85
2022/06/10 04:39:26;;;;;;;2.22;1.70;;;;;;;;;;4978659;28;20219;-86
2022/06/10 04:41:54;;;;;;;1.67;1.58;;;;;;;;;;4976942;28;20595;-84
2022/06/10 04:44:23;;;;;;;1.92;1.65;;;;;;;;;;4979785;28;20236;-85
2022/06/10 04:46:50;;;;;;;2.28;1.80;;;;;;;;;;4979447;28;20208;-84
2022/06/10 04:49:18;;;;;;;1.63;1.50;;;;;;;;;;4978887;28;20616;-85
2022/06/10 04:51:45;;;;;;;2.28;2.08;;;;;;;;;;4978510;28;20662;-82
2022/06/10 04:54:13;;;;;;;1.75;1.65;;;;;;;;;;4977111;28;20224;-83
2022/06/10 04:56:41;;;;;;;1.90;1.80;;;;;;;;;;4977748;28;20204;-83
2022/06/10 04:59:09;;;;;;;1.25;1.20;;;;;;;;;;4978547;28;20224;-84
2022/06/10 05:01:38;;;;;;;1.75;1.50;;;;;;;;;;4977889;28;20568;-85
2022/06/10 05:04:06;;;;;;;2.13;1.83;;;;;;;;;;4977484;28;20682;-86
2022/06/10 05:06:34;;;;;;;1.55;1.45;;;;;;;;;;4977590;28;20206;-87
2022/06/10 05:09:02;;;;;;;1.70;1.60;;;;;;;;;;4978276;28;20228;-87
2022/06/10 05:11:29;;;;;;;2.25;2.13;;;;;;;;;;4978807;28;20211;-84
2022/06/10 05:13:57;;;;;;;4.15;2.10;;;;;;;;;;4993307;23;20223;-78
2022/06/10 05:16:25;;;;;;;2.03;1.83;;;;;;;;;;4994305;28;20207;-77
2022/06/10 05:18:55;;;;;;;2.05;1.65;;;;;;;;;;4994414;28;20608;-78
2022/06/10 05:21:23;;;;;;;1.88;1.77;;;;;;;;;;4996932;28;20234;-78
2022/06/10 05:23:51;;;;;;;1.90;1.80;;;;;;;;;;5013374;28;20605;-77
2022/06/10 05:26:19;;;;;;;2.40;1.92;;;;;;;;;;5013536;28;20397;-78
2022/06/10 05:28:49;;;;;;;2.35;2.00;;;;;;;;;;5037837;23;20750;-79
2022/06/10 05:31:16;;;;;;;1.80;1.70;;;;;;;;;;5018698;28;20253;-79
2022/06/10 05:36:30;;;;;;;2.80;1.98;;;;;;;;;;5017657;28;20209;-79
2022/06/10 05:38:58;;;;;;;2.92;2.08;;;;;;;;;;5015658;28;20312;-78
2022/06/10 05:44:10;;;;;;;2.15;1.90;;;;;;;;;;5016429;28;20217;-81
2022/06/10 05:46:38;;;;;;;1.92;1.83;;;;;;;;;;5016124;28;20237;-81
2022/06/10 05:49:05;;;;;;;1.75;1.65;;;;;;;;;;5031046;28;20322;-81
2022/06/10 05:51:34;;;;;;;2.38;1.88;;;;;;;;;;5036156;28;20210;-82
2022/06/10 05:54:03;;;;;;;2.10;2.00;;;;;;;;;;5036206;28;20267;-82
2022/06/10 05:56:30;;;;;;;2.22;2.13;;;;;;;;;;5028916;28;20253;-82
2022/06/10 05:58:58;;;;;;;2.25;2.00;;;;;;;;;;5001192;28;20660;-82
2022/06/10 06:01:26;;;;;;;1.67;1.40;;;;;;;;;;5000880;28;20242;-82
2022/06/10 06:03:53;;;;;;;1.83;1.73;;;;;;;;;;4999918;28;20684;-82
2022/06/10 06:06:21;;;;;;;2.83;2.00;;;;;;;;;;5000452;28;20199;-83
2022/06/10 06:08:50;;;;;;;2.20;2.00;;;;;;;;;;5000491;28;20258;-83
2022/06/10 06:11:18;;;;;;;1.80;1.60;;;;;;;;;;5000724;28;20259;-83
2022/06/10 06:13:46;;;;;;;1.50;1.40;;;;;;;;;;5000011;28;20246;-82
2022/06/10 06:16:16;;;;;;;2.00;1.90;;;;;;;;;;5000192;28;20223;-82
2022/06/10 06:18:44;;;;;;;2.10;2.00;;;;;;;;;;4999049;28;20255;-82
2022/06/10 06:21:12;;;;;;;2.30;1.70;;;;;;;;;;5000293;28;20235;-81
2022/06/10 06:23:41;;;;;;;2.50;2.30;;;;;;;;;;4999284;28;20295;-82
2022/06/10 06:26:14;;;;;;;1.90;1.80;;;;;;;;;;5001346;28;20231;-83
2022/06/10 06:28:41;;;;;;;1.98;1.60;;;;;;;;;;5000026;28;20235;-83
2022/06/10 06:31:09;;;;;;;1.55;1.42;;;;;;;;;;4998853;28;20233;-83
2022/06/10 06:33:36;;;;;;;1.55;1.45;;;;;;;;;;4999358;28;20208;-83
2022/06/10 06:36:06;;;;;;;2.28;2.17;;;;;;;;;;5000552;28;20299;-83
2022/06/10 06:38:34;;;;;;;1.73;1.63;;;;;;;;;;4999254;28;20219;-83
2022/06/10 06:41:02;;;;;;;1.98;1.77;;;;;;;;;;4999011;28;20335;-82
2022/06/10 06:43:31;;;;;;;2.05;1.95;;;;;;;;;;4998609;28;20498;-83
2022/06/10 06:45:58;;;;;;;2.35;1.67;;;;;;;;;;4999288;28;20231;-83
2022/06/10 06:48:25;;;;;;;2.70;2.50;;;;;;;;;;4998890;28;20311;-83
2022/06/10 06:50:53;;;;;;;2.22;2.03;;;;;;;;;;4998482;28;20231;-82
2022/06/10 06:53:20;;;;;;;3.15;2.88;;;;;;;;;;4996857;28;20294;-82
2022/06/10 06:55:48;;;;;;;3.58;2.63;;;;;;;;;;4999138;28;20666;-83
2022/06/10 06:58:18;;;;;;;5.22;2.38;;;;;;;;;;4999050;28;20289;-82
2022/06/10 07:00:47;;;;;;;5.05;2.55;;;;;;;;;;4999170;28;20748;-84
2022/06/10 07:03:15;;;;;;;2.75;2.55;;;;;;;;;;4998663;28;20590;-83
2022/06/10 07:05:43;;;;;;;3.55;2.38;;;;;;;;;;4998462;28;20219;-83
2022/06/10 07:08:11;;;;;;;3.25;2.65;;;;;;;;;;4997811;28;20720;-84
2022/06/10 07:10:39;;;;;;;2.40;2.25;;;;;;;;;;4997985;28;20203;-83
2022/06/10 07:13:07;;;;;;;2.50;2.30;;;;;;;;;;4996764;28;20745;-84
2022/06/10 07:15:37;;;;;;;2.28;2.08;;;;;;;;;;4997686;28;20372;-84
2022/06/10 07:18:06;;;;;;;3.08;2.45;;;;;;;;;;4997534;28;20230;-83
2022/06/10 07:20:37;;;;;;;2.25;1.98;;;;;;;;;;4997930;28;20223;-82
2022/06/10 07:23:06;;;;;;;3.97;2.33;;;;;;;;;;4996371;28;20203;-84
2022/06/10 07:25:34;;;;;;;1.88;1.77;;;;;;;;;;4996479;28;20295;-84
2022/06/10 07:28:02;;;;;;;2.50;2.28;;;;;;;;;;4996553;28;20270;-84
2022/06/10 07:30:33;;;;;;;3.10;2.45;;;;;;;;;;4997272;28;20290;-84
2022/06/10 07:33:01;;;;;;;4.97;2.45;;;;;;;;;;4994803;28;20207;-83
2022/06/10 07:35:30;;;;;;;2.63;2.28;;;;;;;;;;4995299;28;20255;-84
2022/06/10 07:37:59;;;;;;;2.97;2.33;;;;;;;;;;4992721;28;20314;-85
2022/06/10 07:43:15;;;;;;;2.03;1.73;;;;;;;;;;4993797;28;20279;-84
2022/06/10 07:45:43;;;;;;;2.60;1.60;;;;;;;;;;4994219;28;20323;-85
2022/06/10 07:48:12;;;;;;;1.85;1.70;;;;;;;;;;4994552;28;20308;-85
2022/06/10 07:50:43;;;;;;;2.88;1.88;;;;;;;;;;4994784;28;20231;-84
2022/06/10 07:53:10;;;;;;;2.00;1.63;;;;;;;;;;4993836;28;20290;-84
2022/06/10 07:55:40;;;;;;;1.70;1.42;;;;;;;;;;4994216;28;20254;-85
2022/06/10 07:58:09;;;;;;;1.73;1.63;;;;;;;;;;4994040;28;20716;-85
2022/06/10 08:00:36;;;;;;;1.40;1.30;;;;;;;;;;4993991;28;20238;-84
2022/06/10 08:03:06;;;;;;;1.00;0.90;;;;;;;;;;4993422;28;20239;-84
2022/06/10 08:05:34;;;;;;;3.67;2.00;;;;;;;;;;4994057;28;20231;-84
2022/06/10 08:08:04;;;;;;;2.00;1.77;;;;;;;;;;4993880;28;20658;-84
2022/06/10 08:10:37;;;;;;;2.05;1.50;;;;;;;;;;4994296;28;20203;-85
2022/06/10 08:13:06;;;;;;;3.30;1.52;;;;;;;;;;4993636;28;20222;-85
2022/06/10 08:15:35;;;;;;;2.47;1.60;;;;;;;;;;4993748;28;20235;-84
2022/06/10 08:18:02;;;;;;;2.05;1.25;;;;;;;;;;4993632;28;20220;-84
2022/06/10 08:23:22;;;;;;;1.55;1.27;;;;;;;;;;4993420;28;20207;-84
2022/06/10 08:25:51;;;;;;;1.60;1.50;;;;;;;;;;4994103;28;20206;-85
2022/06/10 08:28:19;;;;;;;4.63;1.42;;;;;;;;;;4993659;28;20267;-83
2022/06/10 08:30:47;;;;;;;2.47;1.85;;;;;;;;;;4992948;28;20681;-84
2022/06/10 08:33:14;;;;;;;1.17;1.17;;;;;;;;;;4992667;28;20295;-83
2022/06/10 08:35:42;;;;;;;1.92;1.70;;;;;;;;;;4993537;28;20195;-85
2022/06/10 08:38:13;;;;;;;1.73;1.63;;;;;;;;;;4991427;28;20736;-84
2022/06/10 08:40:50;;;;;;;1.48;1.38;;;;;;;;;;4993360;28;20239;-85
2022/06/10 08:43:34;;;;;;;1.88;1.70;;;;;;;;;;4992342;28;20207;-85
2022/06/10 08:46:12;;;;;;;1.23;1.00;;;;;;;;;;4993124;28;20886;-85
2022/06/10 08:49:00;;;;;;;2.80;1.73;;;;;;;;;;4993194;28;20606;-85
2022/06/10 08:51:32;;;;;;;2.10;1.30;;;;;;;;;;4993129;28;20231;-84
2022/06/10 08:54:15;;;;;;;1.50;1.40;;;;;;;;;;4992596;28;20694;-83
2022/06/10 08:56:46;;;;;;;4.70;1.50;;;;;;;;;;4993025;28;20231;-85
2022/06/10 08:59:26;;;;;;;2.42;1.58;;;;;;;;;;4993052;28;20255;-85
2022/06/10 09:02:04;;;;;;;1.35;1.25;;;;;;;;;;4991761;28;20203;-85
2022/06/10 09:04:43;;;;;;;1.83;1.73;;;;;;;;;;4992787;28;20581;-84
2022/06/10 09:07:18;;;;;;;1.38;1.30;;;;;;;;;;4993318;28;20290;-85
2022/06/10 09:09:46;;;;;;;1.20;1.20;;;;;;;;;;4992788;28;20261;-85
2022/06/10 09:12:23;;;;;;;2.03;1.40;;;;;;;;;;4991929;28;20212;-85
2022/06/10 09:14:53;;;;;;;1.10;1.10;;;;;;;;;;4992973;28;20213;-85
2022/06/10 09:17:24;;;;;;;1.38;1.27;;;;;;;;;;4992806;28;20259;-85
2022/06/10 09:19:59;;;;;;;1.45;1.35;;;;;;;;;;4992778;28;20203;-86
2022/06/10 09:22:35;;;;;;;2.80;1.83;;;;;;;;;;4992075;28;20195;-85
2022/06/10 09:25:09;;;;;;;2.78;1.80;;;;;;;;;;4992661;28;20214;-85
2022/06/10 09:27:44;;;;;;;1.95;1.42;;;;;;;;;;4992279;28;20671;-85
2022/06/10 09:30:17;;;;;;;3.40;1.77;;;;;;;;;;4992645;28;20207;-85
2022/06/10 09:32:53;;;;;;;1.42;1.20;;;;;;;;;;4991471;28;20238;-85
2022/06/10 09:35:28;;;;;;;1.10;1.10;;;;;;;;;;4992652;28;20231;-85
2022/06/10 09:38:00;;;;;;;1.33;1.23;;;;;;;;;;4990663;28;20237;-84
2022/06/10 09:40:40;;;;;;;1.88;1.65;;;;;;;;;;4992571;28;20278;-85
2022/06/10 09:43:29;;;;;;;1.50;1.40;;;;;;;;;;4991948;28;20332;-85
2022/06/10 09:46:12;;;;;;;3.25;1.40;;;;;;;;;;4992579;28;20287;-84
2022/06/10 09:48:57;;;;;;;1.50;1.40;;;;;;;;;;4993003;28;20251;-85
2022/06/10 09:51:32;;;;;;;2.60;1.63;;;;;;;;;;4992554;28;20200;-85
2022/06/10 09:54:14;;;;;;;1.50;1.27;;;;;;;;;;4993173;28;20202;-85
2022/06/10 09:57:04;;;;;;;1.48;1.23;;;;;;;;;;4995168;28;20596;-85
2022/06/10 09:59:48;;;;;;;4.82;1.35;;;;;;;;;;4992113;28;20255;-87
2022/06/10 10:02:32;;;;;;;0.93;0.93;;;;;;;;;;4992453;28;20207;-87
2022/06/10 10:05:27;;;;;;;1.85;1.33;;;;;;;;;;4992598;28;20582;-86
2022/06/10 10:08:00;;;;;;;0.80;0.80;;;;;;;;;;4985965;28;20219;-85
2022/06/10 10:10:31;;;;;;;1.02;0.82;;;;;;;;;;4992281;28;20206;-85
2022/06/10 10:13:29;;;;;;;1.10;1.00;;;;;;;;;;4991634;28;20200;-85
2022/06/10 10:16:06;;;;;;;1.20;0.95;;;;;;;;;;4995913;28;20632;-85
2022/06/10 10:18:48;;;;;;;1.30;1.05;;;;;;;;;;4995741;28;20301;-84
2022/06/10 10:21:23;;;;;;;1.65;1.33;;;;;;;;;;4996020;28;20238;-86
2022/06/10 10:23:53;;;;;;;1.10;1.10;;;;;;;;;;4995235;28;20209;-86
2022/06/10 10:26:25;;;;;;;1.08;1.00;;;;;;;;;;4995652;28;20207;-85
2022/06/10 10:29:00;;;;;;;1.02;0.90;;;;;;;;;;4995596;28;20313;-85
2022/06/10 10:31:32;;;;;;;0.73;0.73;;;;;;;;;;4994564;28;20251;-86
2022/06/10 10:34:01;;;;;;;0.90;0.90;;;;;;;;;;4995259;28;20218;-85
2022/06/10 10:36:45;;;;;;;1.35;1.20;;;;;;;;;;4995248;28;20227;-86
2022/06/10 10:39:26;;;;;;;1.65;1.33;;;;;;;;;;4995460;28;20223;-85
2022/06/10 10:41:57;;;;;;;1.85;1.05;;;;;;;;;;4994830;28;20294;-86
2022/06/10 10:44:36;;;;;;;0.80;0.80;;;;;;;;;;4995393;28;20210;-85
2022/06/10 10:47:20;;;;;;;0.95;0.95;;;;;;;;;;4995265;28;20267;-86
2022/06/10 10:49:51;;;;;;;1.00;1.00;;;;;;;;;;4995361;28;20233;-87
2022/06/10 10:52:24;;;;;;;3.08;1.20;;;;;;;;;;4994901;28;20242;-86
2022/06/10 10:54:55;;;;;;;1.17;1.05;;;;;;;;;;4995151;28;20239;-86
2022/06/10 10:57:31;;;;;;;1.38;1.00;;;;;;;;;;4994864;28;20267;-85
2022/06/10 11:00:26;;;;;;;0.98;0.98;;;;;;;;;;4995129;28;20203;-86
2022/06/10 11:02:57;;;;;;;1.88;1.45;;;;;;;;;;4994428;28;20643;-84
2022/06/10 11:05:31;;;;;;;1.45;1.35;;;;;;;;;;4995059;28;20298;-86
2022/06/10 11:08:25;;;;;;;1.00;1.00;;;;;;;;;;4994873;28;20238;-85
2022/06/10 11:11:00;;;;;;;0.88;0.88;;;;;;;;;;5016328;28;20239;-86
2022/06/10 11:13:45;;;;;;;1.00;0.90;;;;;;;;;;5014839;28;20212;-85
2022/06/10 11:16:45;;;;;;;0.63;0.63;;;;;;;;;;5013949;28;20231;-84
2022/06/10 11:19:20;;;;;;;2.08;1.00;;;;;;;;;;4995803;28;20227;-85
2022/06/10 11:21:55;;;;;;;0.75;0.75;;;;;;;;;;4995054;28;20647;-85
2022/06/10 11:24:30;;;;;;;2.40;0.90;;;;;;;;;;4996959;28;20234;-85
2022/06/10 11:26:59;;;;;;;1.15;1.15;;;;;;;;;;4994947;28;20211;-85
2022/06/10 11:29:28;;;;;;;1.25;0.80;;;;;;;;;;4995626;28;20723;-85
2022/06/10 11:31:58;;;;;;;0.77;0.77;;;;;;;;;;4994268;28;20665;-85
2022/06/10 11:34:36;;;;;;;0.68;0.68;;;;;;;;;;4997139;28;21009;-85
2022/06/10 11:37:21;;;;;;;1.05;0.95;;;;;;;;;;5010487;28;20217;-84
2022/06/10 11:39:56;;;;;;;1.10;1.10;;;;;;;;;;5015766;28;20273;-85
2022/06/10 11:42:31;;;;;;;0.90;0.88;;;;;;;;;;5014677;28;20205;-85
2022/06/10 11:45:17;;;;;;;1.75;1.30;;;;;;;;;;5015489;28;20209;-85
2022/06/10 11:47:52;;;;;;;1.00;1.00;;;;;;;;;;5015034;28;20226;-84
2022/06/10 11:50:27;;;;;;;1.00;0.90;;;;;;;;;;5014350;28;20191;-83
2022/06/10 11:53:00;;;;;;;0.70;0.70;;;;;;;;;;5014287;28;20234;-84
2022/06/10 11:55:30;;;;;;;1.10;1.00;;;;;;;;;;5014781;28;20235;-85
2022/06/10 12:00:51;;;;;;;1.00;1.00;;;;;;;;;;5007455;28;20215;-84
2022/06/10 12:03:25;;;;;;;1.30;1.20;;;;;;;;;;5013447;28;20195;-84
2022/06/10 12:06:00;;;;;;;0.95;0.90;;;;;;;;;;5013757;28;20209;-85
2022/06/10 12:08:42;;;;;;;1.05;0.80;;;;;;;;;;5013872;28;20226;-85
2022/06/10 12:11:26;;;;;;;0.93;0.90;;;;;;;;;;5014144;28;20203;-84
2022/06/10 12:14:03;;;;;;;0.70;0.70;;;;;;;;;;5012769;28;20203;-84
2022/06/10 12:16:32;;;;;;;1.23;0.90;;;;;;;;;;5013973;28;20290;-84
2022/06/10 12:19:01;;;;;;;0.90;0.90;;;;;;;;;;5013854;28;20227;-85
2022/06/10 12:21:30;;;;;;;1.10;1.10;;;;;;;;;;5014095;28;20199;-84
2022/06/10 12:23:59;;;;;;;1.75;1.45;;;;;;;;;;5013326;28;20234;-84
2022/06/10 12:26:35;;;;;;;0.98;0.98;;;;;;;;;;5013777;28;20246;-85
2022/06/10 12:29:16;;;;;;;1.10;1.00;;;;;;;;;;4993871;28;20711;-85
2022/06/10 12:31:52;;;;;;;0.95;0.95;;;;;;;;;;4992424;28;20705;-85
2022/06/10 12:34:32;;;;;;;1.65;1.55;;;;;;;;;;4994324;28;20574;-84
2022/06/10 12:37:05;;;;;;;1.00;0.70;;;;;;;;;;4992859;28;20242;-85
2022/06/10 12:39:36;;;;;;;1.15;1.00;;;;;;;;;;4993579;28;20278;-85
2022/06/10 12:42:10;;;;;;;1.25;1.15;;;;;;;;;;4993319;28;20599;-84
2022/06/10 12:44:45;;;;;;;2.15;1.05;;;;;;;;;;4993370;28;20287;-85
2022/06/10 12:47:13;;;;;;;1.63;1.00;;;;;;;;;;4993007;28;20250;-84
2022/06/10 12:49:43;;;;;;;0.73;0.73;;;;;;;;;;4993619;28;20771;-85
2022/06/10 12:52:45;;;;;;;0.90;0.90;;;;;;;;;;4992887;28;20250;-84
2022/06/10 12:55:24;;;;;;;1.35;1.05;;;;;;;;;;4993600;28;20206;-84
2022/06/10 12:57:55;;;;;;;0.80;0.80;;;;;;;;;;5005321;28;20222;-84
2022/06/10 13:00:44;;;;;;;0.80;0.80;;;;;;;;;;5013709;28;20223;-83
2022/06/10 13:03:33;;;;;;;0.80;0.80;;;;;;;;;;5012957;28;20707;-84
2022/06/10 13:06:37;;;;;;;1.02;0.90;;;;;;;;;;5013245;28;20207;-84
2022/06/10 13:09:27;;;;;;;1.00;1.00;;;;;;;;;;5006799;28;20661;-85
2022/06/10 13:11:56;;;;;;;1.25;1.17;;;;;;;;;;5012773;28;20303;-84
2022/06/10 13:14:47;;;;;;;0.70;0.70;;;;;;;;;;5012775;28;20207;-85
2022/06/10 13:17:20;;;;;;;0.80;0.80;;;;;;;;;;5013322;28;20207;-83
2022/06/10 13:20:18;;;;;;;0.80;0.80;;;;;;;;;;5012974;28;20322;-84
2022/06/10 13:22:51;;;;;;;1.00;1.00;;;;;;;;;;5012007;28;20234;-84
2022/06/10 13:25:28;;;;;;;1.10;1.00;;;;;;;;;;5012276;28;20697;-84
2022/06/10 13:27:55;;;;;;;0.90;0.90;;;;;;;;;;5012919;28;20235;-84
2022/06/10 13:30:30;;;;;;;0.80;0.80;;;;;;;;;;5013150;28;20262;-83
2022/06/10 13:33:07;;;;;;;1.67;1.38;;;;;;;;;;5012904;28;20595;-84
2022/06/10 13:35:39;;;;;;;0.90;0.90;;;;;;;;;;5012829;28;20199;-85
2022/06/10 13:38:14;;;;;;;1.65;1.20;;;;;;;;;;5011375;28;20253;-84
2022/06/10 13:40:50;;;;;;;1.95;1.85;;;;;;;;;;5012229;28;20258;-85
2022/06/10 13:43:27;;;;;;;3.38;2.42;;;;;;;;;;5011790;28;20290;-84
2022/06/10 13:45:55;;;;;;;3.22;1.38;;;;;;;;;;5012587;28;20289;-84
2022/06/10 13:48:26;;;;;;;1.15;1.15;;;;;;;;;;5012994;28;20226;-84
2022/06/10 13:53:58;;;;;;;1.33;1.00;;;;;;;;;;5004782;28;20199;-85
2022/06/10 13:56:31;;;;;;;1.48;1.38;;;;;;;;;;5016196;28;20207;-84
2022/06/10 13:59:00;;;;;;;1.05;1.05;;;;;;;;;;5016130;28;20733;-84
2022/06/10 14:01:31;;;;;;;2.00;1.10;;;;;;;;;;5015945;28;20226;-84
2022/06/10 14:04:05;;;;;;;0.90;0.90;;;;;;;;;;5015730;28;20245;-84
2022/06/10 14:06:35;;;;;;;0.65;0.65;;;;;;;;;;5016110;28;20237;-84
2022/06/10 14:09:14;;;;;;;0.80;0.80;;;;;;;;;;5015941;28;20265;-84
2022/06/10 14:11:46;;;;;;;1.13;0.90;;;;;;;;;;5015289;28;20343;-83
2022/06/10 14:14:19;;;;;;;0.82;0.82;;;;;;;;;;5015580;28;20207;-84
2022/06/10 14:16:47;;;;;;;1.20;1.10;;;;;;;;;;5015994;28;20261;-84
2022/06/10 14:19:18;;;;;;;0.80;0.75;;;;;;;;;;5015420;28;20743;-84
2022/06/10 14:21:47;;;;;;;1.63;1.20;;;;;;;;;;5016725;28;20234;-84
2022/06/10 14:24:23;;;;;;;1.30;1.15;;;;;;;;;;5016146;28;20289;-85
2022/06/10 14:27:03;;;;;;;0.90;0.90;;;;;;;;;;5015620;28;20210;-84
2022/06/10 14:29:41;;;;;;;1.50;1.02;;;;;;;;;;5015876;28;20231;-84
2022/06/10 14:32:32;;;;;;;1.23;1.13;;;;;;;;;;5014532;28;20663;-84
2022/06/10 14:35:03;;;;;;;1.38;1.00;;;;;;;;;;5010314;28;20258;-84
2022/06/10 14:37:34;;;;;;;0.73;0.73;;;;;;;;;;5014294;28;20203;-84
2022/06/10 14:40:18;;;;;;;0.80;0.80;;;;;;;;;;5015214;28;20254;-85
2022/06/10 14:43:06;;;;;;;2.33;1.20;;;;;;;;;;5014657;28;20210;-85
2022/06/10 14:45:37;;;;;;;0.85;0.85;;;;;;;;;;5015330;28;20234;-85
2022/06/10 14:48:19;;;;;;;2.13;1.00;;;;;;;;;;5015053;28;20607;-85
2022/06/10 14:51:15;;;;;;;1.70;0.95;;;;;;;;;;5015248;28;20203;-85
2022/06/10 14:53:44;;;;;;;0.75;0.75;;;;;;;;;;5014637;28;20210;-85
2022/06/10 14:56:16;;;;;;;0.88;0.88;;;;;;;;;;5015082;28;20237;-85
2022/06/10 14:58:47;;;;;;;1.10;0.90;;;;;;;;;;5014200;28;20589;-84
2022/06/10 15:01:22;;;;;;;1.20;1.10;;;;;;;;;;5013454;28;20624;-84
2022/06/10 15:03:51;;;;;;;1.10;1.00;;;;;;;;;;5013930;28;20238;-85
2022/06/10 15:06:32;;;;;;;0.90;0.90;;;;;;;;;;5014831;28;20269;-84
2022/06/10 15:09:11;;;;;;;0.82;0.82;;;;;;;;;;5014573;28;20226;-85
2022/06/10 15:11:39;;;;;;;1.67;1.00;;;;;;;;;;5014226;28;20286;-85
2022/06/10 15:14:10;;;;;;;1.08;1.00;;;;;;;;;;5014476;28;20234;-84
2022/06/10 15:16:40;;;;;;;1.05;0.85;;;;;;;;;;5014729;28;20254;-84
2022/06/10 15:19:08;;;;;;;0.95;0.90;;;;;;;;;;5014223;28;20250;-85
2022/06/10 15:21:37;;;;;;;0.70;0.70;;;;;;;;;;5019477;28;20265;-84
2022/06/10 15:24:06;;;;;;;0.70;0.70;;;;;;;;;;5024646;28;20199;-85
2022/06/10 15:26:40;;;;;;;2.40;1.00;;;;;;;;;;5020984;28;20300;-84
2022/06/10 15:29:14;;;;;;;0.90;0.70;;;;;;;;;;5017312;28;20226;-84
2022/06/10 15:31:42;;;;;;;1.13;0.70;;;;;;;;;;4999092;28;20225;-84
2022/06/10 15:34:10;;;;;;;1.60;1.10;;;;;;;;;;5017608;28;20211;-84
2022/06/10 15:42:17;;;;;;;5.55;1.23;;;;;;;;;;5014922;28;20195;-85
2022/06/10 15:44:46;;;;;;;0.50;0.50;;;;;;;;;;5017790;28;20206;-84
2022/06/10 15:47:16;;;;;;;1.30;1.17;;;;;;;;;;5018454;28;20203;-84